Time;durP1;ratioP1;P1;durP2;ratioP2;P2;SDS_P1;SDS_P2;PMS_P1;PMS_P2;Temp;Humidity;BMP_temperature;BMP_pressure;BME280_temperature;BME280_humidity;BME280_pressure;Samples;Min_cycle;Max_cycle;Signal;HPM_P1;HPM_P2
2022/08/14 00:00:12;;;;;;;5.67;4.73;;;19.70;99.90;;;;;;5055382;28;20681;-91
2022/08/14 00:02:39;;;;;;;6.03;4.70;;;19.60;99.90;;;;;;5045863;28;20232;-90
2022/08/14 00:05:09;;;;;;;4.77;3.87;;;19.60;99.90;;;;;;5055539;28;20697;-91
2022/08/14 00:07:35;;;;;;;5.13;4.37;;;19.50;99.90;;;;;;5039000;28;20214;-91
2022/08/14 00:10:03;;;;;;;7.10;4.73;;;19.50;99.90;;;;;;5030894;28;20210;-89
2022/08/14 00:12:32;;;;;;;5.93;4.77;;;19.50;99.90;;;;;;5035132;28;20210;-90
2022/08/14 00:14:57;;;;;;;5.60;4.67;;;19.60;99.90;;;;;;5036050;28;20252;-90
2022/08/14 00:17:23;;;;;;;6.73;4.20;;;19.60;99.90;;;;;;5035160;28;20190;-88
2022/08/14 00:19:49;;;;;;;5.77;5.17;;;19.60;99.90;;;;;;5019427;28;20182;-90
2022/08/14 00:22:17;;;;;;;4.53;4.13;;;19.60;99.90;;;;;;5035363;28;21009;-89
2022/08/14 00:24:44;;;;;;;6.70;4.80;;;19.60;99.90;;;;;;5022912;28;20224;-89
2022/08/14 00:27:11;;;;;;;5.57;4.43;;;19.60;99.90;;;;;;5055545;28;20209;-89
2022/08/14 00:29:36;;;;;;;6.17;4.47;;;19.50;99.90;;;;;;5055462;28;20652;-89
2022/08/14 00:32:02;;;;;;;6.43;4.90;;;19.40;99.90;;;;;;5023676;28;20186;-90
2022/08/14 00:34:28;;;;;;;11.07;5.17;;;19.40;99.90;;;;;;5035385;28;20263;-90
2022/08/14 00:36:54;;;;;;;6.27;5.33;;;19.40;99.90;;;;;;5051961;28;20297;-90
2022/08/14 00:39:20;;;;;;;6.03;4.73;;;19.40;99.90;;;;;;5022186;28;20286;-90
2022/08/14 00:41:47;;;;;;;8.37;5.43;;;19.40;99.90;;;;;;5013259;28;20216;-90
2022/08/14 00:44:14;;;;;;;7.47;5.07;;;19.30;99.90;;;;;;5060196;28;20696;-88
2022/08/14 00:46:39;;;;;;;6.07;4.73;;;19.20;99.90;;;;;;5046982;28;20678;-90
2022/08/14 00:49:07;;;;;;;8.07;5.20;;;19.20;99.90;;;;;;5025931;28;20300;-90
2022/08/14 00:51:33;;;;;;;5.47;4.90;;;19.20;99.90;;;;;;5031339;28;20804;-90
2022/08/14 00:54:01;;;;;;;8.37;5.00;;;19.30;99.90;;;;;;5020454;28;20214;-90
2022/08/14 00:56:28;;;;;;;7.67;5.47;;;19.20;99.90;;;;;;5031233;28;20194;-90
2022/08/14 00:58:54;;;;;;;6.93;4.57;;;19.30;99.90;;;;;;5059557;28;20185;-90
2022/08/14 01:01:20;;;;;;;6.30;5.33;;;19.20;99.90;;;;;;5052214;28;20221;-88
2022/08/14 01:03:46;;;;;;;6.97;5.23;;;19.20;99.90;;;;;;5025508;28;20249;-90
2022/08/14 01:06:15;;;;;;;6.97;5.37;;;19.20;99.90;;;;;;5056886;28;20233;-90
2022/08/14 01:08:42;;;;;;;7.20;5.07;;;19.20;99.90;;;;;;5055809;28;20206;-89
2022/08/14 01:11:14;;;;;;;7.60;4.90;;;19.20;99.90;;;;;;5039831;28;20174;-90
2022/08/14 01:13:42;;;;;;;9.40;5.53;;;19.20;99.90;;;;;;5058772;28;20213;-90
2022/08/14 01:16:12;;;;;;;7.07;5.13;;;19.10;99.90;;;;;;5041998;28;20697;-90
2022/08/14 01:21:41;;;;;;;8.27;5.03;;;19.10;99.90;;;;;;5046876;28;20267;-89
2022/08/14 01:24:07;;;;;;;6.80;5.60;;;19.00;99.90;;;;;;5056327;28;20244;-90
2022/08/14 01:26:34;;;;;;;6.53;5.37;;;18.90;99.90;;;;;;5038104;28;20270;-90
2022/08/14 01:29:01;;;;;;;7.90;4.80;;;18.90;99.90;;;;;;5055581;28;20178;-89
2022/08/14 01:31:29;;;;;;;6.77;5.90;;;18.90;99.90;;;;;;5055181;28;20217;-90
2022/08/14 01:34:00;;;;;;;6.33;5.03;;;18.90;99.90;;;;;;5055946;28;20202;-89
2022/08/14 01:36:28;;;;;;;8.37;5.77;;;18.90;99.90;;;;;;5051654;28;20209;-90
2022/08/14 01:38:58;;;;;;;7.23;5.13;;;18.80;99.90;;;;;;5038666;28;20224;-90
2022/08/14 01:41:26;;;;;;;8.23;5.77;;;18.80;99.90;;;;;;5040901;28;20319;-89
2022/08/14 01:43:59;;;;;;;7.97;5.47;;;18.80;99.90;;;;;;5055490;28;20711;-90
2022/08/14 01:46:31;;;;;;;10.03;5.63;;;18.60;99.90;;;;;;5057700;28;20301;-90
2022/08/14 01:48:57;;;;;;;5.97;5.20;;;18.60;99.90;;;;;;5042162;28;20570;-90
2022/08/14 01:51:27;;;;;;;7.97;6.17;;;18.60;99.90;;;;;;5026937;28;20234;-90
2022/08/14 01:54:08;;;;;;;8.80;5.87;;;18.40;99.90;;;;;;5021546;28;20226;-89
2022/08/14 01:56:38;;;;;;;6.70;5.37;;;18.40;99.90;;;;;;5049973;28;20204;-89
2022/08/14 01:59:16;;;;;;;8.73;6.30;;;18.40;99.90;;;;;;5057681;28;20252;-91
2022/08/14 02:01:43;;;;;;;7.70;5.27;;;18.40;99.90;;;;;;5075100;28;20224;-91
2022/08/14 02:04:09;;;;;;;10.00;5.77;;;18.20;99.90;;;;;;5042837;28;20241;-90
2022/08/14 02:06:39;;;;;;;7.77;5.87;;;18.20;99.90;;;;;;5032839;28;20215;-91
2022/08/14 02:09:06;;;;;;;7.67;5.73;;;18.10;99.90;;;;;;5017928;28;20681;-90
2022/08/14 02:11:34;;;;;;;10.97;5.67;;;18.10;99.90;;;;;;5054916;28;20627;-90
2022/08/14 02:14:07;;;;;;;10.87;7.03;;;18.00;99.90;;;;;;5054850;28;20190;-90
2022/08/14 02:16:37;;;;;;;10.97;6.10;;;18.00;99.90;;;;;;5053877;28;20268;-90
2022/08/14 02:19:07;;;;;;;10.53;6.40;;;18.10;99.90;;;;;;5054099;28;20233;-90
2022/08/14 02:21:35;;;;;;;8.60;6.87;;;18.20;99.90;;;;;;5062236;28;20221;-91
2022/08/14 02:24:03;;;;;;;8.83;6.77;;;18.10;99.90;;;;;;5070350;28;20214;-90
2022/08/14 02:26:32;;;;;;;11.63;6.87;;;18.00;99.90;;;;;;5069485;28;20188;-89
2022/08/14 02:29:01;;;;;;;11.97;6.40;;;17.90;99.90;;;;;;5051261;28;20182;-89
2022/08/14 02:31:31;;;;;;;10.27;6.57;;;17.90;99.90;;;;;;5052931;28;20213;-89
2022/08/14 02:33:58;;;;;;;9.83;7.00;;;17.90;99.90;;;;;;5050169;28;20260;-90
2022/08/14 02:36:24;;;;;;;9.27;6.20;;;18.00;99.90;;;;;;5034511;28;20280;-90
2022/08/14 02:38:50;;;;;;;12.20;7.50;;;17.90;99.90;;;;;;5017075;28;20683;-90
2022/08/14 02:41:16;;;;;;;12.70;8.37;;;17.90;99.90;;;;;;5004789;28;20170;-89
2022/08/14 02:43:43;;;;;;;11.57;6.67;;;18.00;99.90;;;;;;5036877;28;20233;-90
2022/08/14 02:46:10;;;;;;;12.63;7.47;;;18.00;99.90;;;;;;5033545;28;20230;-89
2022/08/14 02:48:40;;;;;;;9.43;7.13;;;18.00;99.90;;;;;;5028973;28;20573;-89
2022/08/14 02:51:14;;;;;;;10.20;6.67;;;18.00;99.90;;;;;;5033615;28;20206;-90
2022/08/14 02:53:44;;;;;;;11.63;7.30;;;17.90;99.90;;;;;;5036585;28;20210;-89
2022/08/14 02:56:14;;;;;;;12.23;7.60;;;17.90;99.90;;;;;;5036621;28;20159;-89
2022/08/14 02:58:46;;;;;;;10.43;7.17;;;17.80;99.90;;;;;;5049285;28;20219;-90
2022/08/14 03:01:13;;;;;;;10.20;7.50;;;17.80;99.90;;;;;;5050381;28;20213;-89
2022/08/14 03:03:39;;;;;;;11.20;7.63;;;17.80;99.90;;;;;;5055031;28;20229;-91
2022/08/14 03:06:07;;;;;;;10.47;7.33;;;18.00;99.90;;;;;;5023177;28;20267;-89
2022/08/14 03:08:36;;;;;;;10.37;8.23;;;18.10;99.90;;;;;;5045409;28;20657;-88
2022/08/14 03:11:05;;;;;;;11.97;7.37;;;18.10;99.90;;;;;;5036836;28;20660;-88
2022/08/14 03:13:34;;;;;;;10.13;7.57;;;18.10;99.90;;;;;;5036140;28;20218;-89
2022/08/14 03:16:03;;;;;;;11.53;7.70;;;18.00;99.90;;;;;;5035794;28;20225;-89
2022/08/14 03:18:29;;;;;;;12.67;7.47;;;18.00;99.90;;;;;;5007820;28;20218;-89
2022/08/14 03:20:56;;;;;;;10.63;7.60;;;18.00;99.90;;;;;;5010811;28;20272;-89
2022/08/14 03:23:22;;;;;;;11.37;7.40;;;18.00;99.90;;;;;;5016410;28;20217;-88
2022/08/14 03:25:48;;;;;;;12.40;8.20;;;18.00;99.90;;;;;;5003428;28;20185;-89
2022/08/14 03:28:14;;;;;;;9.93;7.60;;;18.00;99.90;;;;;;5019534;28;20218;-89
2022/08/14 03:30:39;;;;;;;11.17;7.37;;;18.10;99.90;;;;;;5003060;28;20287;-89
2022/08/14 03:33:06;;;;;;;11.87;7.83;;;18.10;99.90;;;;;;5021810;28;20225;-89
2022/08/14 03:35:33;;;;;;;12.57;7.93;;;18.10;99.90;;;;;;5031249;28;20249;-89
2022/08/14 03:38:10;;;;;;;10.97;7.53;;;18.00;99.90;;;;;;5035095;28;20182;-89
2022/08/14 03:40:38;;;;;;;8.80;6.90;;;17.90;99.90;;;;;;5035368;28;20627;-88
2022/08/14 03:43:08;;;;;;;10.60;7.63;;;17.90;99.90;;;;;;5012798;28;20227;-90
2022/08/14 03:45:36;;;;;;;10.13;8.10;;;17.90;99.90;;;;;;4996125;28;20222;-89
2022/08/14 03:48:18;;;;;;;10.23;7.63;;;17.90;99.90;;;;;;4996452;28;20274;-89
2022/08/14 03:50:51;;;;;;;11.30;7.33;;;17.90;99.90;;;;;;5012487;28;20218;-89
2022/08/14 03:53:19;;;;;;;11.80;7.27;;;17.90;99.90;;;;;;5014323;28;20667;-90
2022/08/14 03:55:46;;;;;;;15.57;8.37;;;17.90;99.90;;;;;;5000077;28;20217;-89
2022/08/14 03:58:12;;;;;;;10.40;8.10;;;17.90;99.90;;;;;;4999507;28;20225;-89
2022/08/14 04:00:39;;;;;;;12.67;9.53;;;18.00;99.90;;;;;;5034690;28;20217;-89
2022/08/14 04:03:08;;;;;;;13.37;8.00;;;18.00;99.90;;;;;;5052809;28;20218;-89
2022/08/14 04:05:37;;;;;;;14.90;8.33;;;18.00;99.90;;;;;;5043812;28;20689;-90
2022/08/14 04:08:04;;;;;;;12.40;8.20;;;18.00;99.90;;;;;;5036645;28;20638;-90
2022/08/14 04:10:30;;;;;;;10.67;8.00;;;18.00;99.90;;;;;;5055538;28;20272;-92
2022/08/14 04:12:59;;;;;;;15.37;8.50;;;17.90;99.90;;;;;;5038898;28;20292;-88
2022/08/14 04:15:26;;;;;;;10.47;8.37;;;17.90;99.90;;;;;;5027402;28;20210;-88
2022/08/14 04:17:55;;;;;;;13.90;8.33;;;17.90;99.90;;;;;;5035255;28;20210;-87
2022/08/14 04:20:21;;;;;;;12.93;8.53;;;17.80;99.90;;;;;;5052976;28;20205;-88
2022/08/14 04:22:49;;;;;;;12.13;8.47;;;17.80;99.90;;;;;;5038668;28;20668;-90
2022/08/14 04:25:15;;;;;;;13.30;7.87;;;17.80;99.90;;;;;;5038412;28;20312;-91
2022/08/14 04:27:41;;;;;;;14.13;8.37;;;17.80;99.90;;;;;;5054302;28;20220;-91
2022/08/14 04:30:07;;;;;;;11.27;7.43;;;17.90;99.90;;;;;;5037339;28;20580;-90
2022/08/14 04:32:34;;;;;;;12.60;8.50;;;17.90;99.90;;;;;;5034227;28;20209;-90
2022/08/14 04:35:00;;;;;;;13.40;8.27;;;17.80;99.90;;;;;;5064114;28;20636;-89
2022/08/14 04:45:40;;;;;;;11.83;8.10;;;17.70;99.90;;;;;;5023334;28;20318;-91
2022/08/14 04:48:13;;;;;;;16.00;8.80;;;17.70;99.90;;;;;;5054380;28;20620;-90
2022/08/14 04:50:45;;;;;;;18.17;8.53;;;17.80;99.90;;;;;;5027209;28;20210;-90
2022/08/14 04:53:27;;;;;;;12.20;8.47;;;17.90;99.90;;;;;;5051701;28;20667;-89
2022/08/14 04:55:53;;;;;;;12.70;8.37;;;18.00;99.90;;;;;;5065067;28;20224;-90
2022/08/14 04:58:23;;;;;;;14.47;8.97;;;18.10;99.90;;;;;;5037912;28;20209;-90
2022/08/14 05:00:50;;;;;;;13.10;8.40;;;18.10;99.90;;;;;;5054868;28;20221;-90
2022/08/14 05:03:19;;;;;;;13.03;9.13;;;18.10;99.90;;;;;;5035796;28;20241;-89
2022/08/14 05:05:47;;;;;;;12.43;8.60;;;18.20;99.90;;;;;;5052481;28;20304;-90
2022/08/14 05:08:13;;;;;;;13.47;9.13;;;18.20;99.90;;;;;;5051945;28;20209;-90
2022/08/14 05:10:41;;;;;;;14.47;9.50;;;18.30;99.90;;;;;;5037813;28;20305;-90
2022/08/14 05:13:07;;;;;;;11.60;7.97;;;18.30;99.90;;;;;;5024232;28;20681;-90
2022/08/14 05:15:35;;;;;;;13.63;7.87;;;18.40;99.90;;;;;;5014883;28;20869;-90
2022/08/14 05:18:11;;;;;;;14.60;8.67;;;18.50;99.90;;;;;;5030267;28;20293;-90
2022/08/14 05:20:38;;;;;;;22.00;9.10;;;18.60;99.90;;;;;;5031076;28;20193;-90
2022/08/14 05:23:06;;;;;;;13.70;8.87;;;18.70;99.90;;;;;;5018228;28;20213;-90
2022/08/14 05:25:34;;;;;;;13.00;8.33;;;18.80;99.90;;;;;;4994853;28;20217;-89
2022/08/14 05:28:11;;;;;;;10.50;7.67;;;18.90;99.90;;;;;;5026040;28;20218;-91
2022/08/14 05:30:38;;;;;;;12.63;8.53;;;19.20;99.90;;;;;;5014671;28;20206;-90
2022/08/14 05:33:05;;;;;;;13.10;8.40;;;19.40;99.90;;;;;;5028371;28;20221;-89
2022/08/14 05:35:31;;;;;;;11.37;8.30;;;19.60;99.90;;;;;;5009169;28;20182;-90
2022/08/14 05:38:09;;;;;;;12.83;7.97;;;19.70;99.90;;;;;;5055001;28;20650;-89
2022/08/14 05:40:36;;;;;;;11.27;8.00;;;19.90;99.90;;;;;;5039342;28;20285;-90
2022/08/14 05:43:02;;;;;;;12.87;8.43;;;20.00;99.90;;;;;;5041124;28;20220;-90
2022/08/14 05:45:27;;;;;;;11.33;8.33;;;20.50;99.90;;;;;;5040947;28;20217;-91
2022/08/14 05:47:53;;;;;;;10.93;7.43;;;21.50;99.90;;;;;;5038574;28;20800;-90
2022/08/14 05:50:19;;;;;;;14.13;8.07;;;22.70;99.90;;;;;;5057369;28;20189;-91
2022/08/14 05:52:48;;;;;;;11.87;8.03;;;23.80;99.90;;;;;;5050132;28;20181;-90
2022/08/14 05:55:14;;;;;;;10.93;7.10;;;24.90;99.90;;;;;;5057847;28;20752;-90
2022/08/14 05:57:55;;;;;;;10.30;7.07;;;25.40;99.90;;;;;;5041021;28;20549;-90
2022/08/14 06:00:24;;;;;;;8.55;7.05;;;25.90;99.90;;;;;;5053357;28;20202;-91
2022/08/14 06:02:50;;;;;;;8.95;6.22;;;26.50;99.90;;;;;;5057715;28;20229;-90
2022/08/14 06:05:16;;;;;;;8.73;6.20;;;26.80;99.90;;;;;;5058244;28;20283;-89
2022/08/14 06:07:42;;;;;;;8.30;6.30;;;26.70;99.90;;;;;;5038306;28;20298;-91
2022/08/14 06:10:09;;;;;;;10.70;6.57;;;26.60;99.90;;;;;;5023184;28;20217;-90
2022/08/14 06:12:36;;;;;;;10.00;5.75;;;26.30;99.90;;;;;;5057903;28;20271;-89
2022/08/14 06:15:02;;;;;;;8.20;6.35;;;26.10;99.90;;;;;;5057790;28;20263;-90
2022/08/14 06:17:28;;;;;;;6.78;6.07;;;25.80;99.90;;;;;;5041068;28;20625;-90
2022/08/14 06:19:54;;;;;;;11.82;7.47;;;26.00;99.90;;;;;;5055931;28;20186;-89
2022/08/14 06:22:20;;;;;;;7.43;5.72;;;26.30;99.90;;;;;;5034973;28;20210;-91
2022/08/14 06:24:45;;;;;;;8.48;6.47;;;26.60;99.90;;;;;;5064383;28;20681;-90
2022/08/14 06:27:11;;;;;;;6.97;6.28;;;26.50;99.90;;;;;;5040870;28;20213;-90
2022/08/14 06:29:37;;;;;;;8.45;6.50;;;26.20;99.90;;;;;;5027363;28;20212;-87
2022/08/14 06:32:04;;;;;;;9.30;6.18;;;26.40;99.90;;;;;;5054383;28;20254;-91
2022/08/14 06:34:30;;;;;;;9.93;6.75;;;26.30;99.90;;;;;;5051466;28;20212;-89
2022/08/14 06:36:56;;;;;;;7.22;6.07;;;25.90;99.90;;;;;;5040279;28;20738;-88
2022/08/14 06:39:22;;;;;;;7.38;6.15;;;25.90;99.90;;;;;;5057303;28;20254;-89
2022/08/14 06:41:48;;;;;;;9.73;6.10;;;25.80;99.90;;;;;;5074905;28;20669;-89
2022/08/14 06:44:14;;;;;;;8.57;5.95;;;25.70;99.90;;;;;;5057413;28;20205;-89
2022/08/14 06:46:40;;;;;;;7.65;6.57;;;25.70;99.90;;;;;;5074342;28;20212;-88
2022/08/14 06:49:06;;;;;;;7.90;6.05;;;25.80;99.90;;;;;;5033501;28;20300;-89
2022/08/14 06:51:32;;;;;;;8.27;5.90;;;26.00;99.90;;;;;;5039723;28;20217;-90
2022/08/14 06:53:58;;;;;;;11.73;5.47;;;26.20;99.90;;;;;;5040640;28;20262;-89
2022/08/14 06:56:23;;;;;;;7.68;6.05;;;26.10;99.90;;;;;;5040278;28;20174;-88
2022/08/14 06:58:49;;;;;;;8.38;6.25;;;25.80;99.90;;;;;;5037942;28;20726;-87
2022/08/14 07:06:55;;;;;;;7.53;6.15;;;26.30;99.90;;;;;;5021847;28;20733;-89
2022/08/14 07:09:20;;;;;;;8.25;6.32;;;26.40;99.90;;;;;;5020258;28;20264;-90
2022/08/14 07:11:46;;;;;;;7.80;5.93;;;26.40;99.90;;;;;;5020174;28;20213;-89
2022/08/14 07:14:12;;;;;;;6.40;5.25;;;27.20;99.90;;;;;;5050653;28;20190;-89
2022/08/14 07:16:38;;;;;;;8.88;5.63;;;27.00;99.90;;;;;;5025358;28;20215;-89
2022/08/14 07:19:04;;;;;;;6.70;5.45;;;26.40;99.90;;;;;;5035551;28;20221;-89
2022/08/14 07:21:30;;;;;;;8.68;6.00;;;26.60;99.90;;;;;;5036460;28;20210;-89
2022/08/14 07:23:55;;;;;;;7.13;5.97;;;26.30;99.90;;;;;;4988249;28;20271;-88
2022/08/14 07:26:21;;;;;;;6.22;5.63;;;26.30;99.90;;;;;;5026323;28;20166;-89
2022/08/14 07:28:47;;;;;;;8.18;5.40;;;26.20;99.90;;;;;;5036938;28;20623;-89
2022/08/14 07:31:13;;;;;;;6.00;5.40;;;26.40;99.90;;;;;;5019521;28;20214;-89
2022/08/14 07:33:44;;;;;;;7.15;5.93;;;26.50;99.90;;;;;;5025459;28;20702;-88
2022/08/14 07:36:13;;;;;;;7.72;6.25;;;26.70;99.90;;;;;;5019327;28;20289;-89
2022/08/14 07:38:42;;;;;;;7.95;5.22;;;26.40;99.90;;;;;;5036149;28;20308;-89
2022/08/14 07:41:09;;;;;;;6.50;5.47;;;26.30;99.90;;;;;;5033212;28;20179;-90
2022/08/14 07:43:36;;;;;;;7.57;6.25;;;26.80;99.90;;;;;;5039900;28;20709;-91
2022/08/14 07:46:02;;;;;;;8.88;5.78;;;26.90;99.90;;;;;;5035444;28;20206;-89
2022/08/14 07:48:28;;;;;;;6.80;5.57;;;26.70;99.90;;;;;;5052110;28;20217;-88
2022/08/14 07:50:54;;;;;;;7.35;5.88;;;27.10;99.90;;;;;;5046534;28;20221;-89
2022/08/14 07:53:20;;;;;;;6.80;5.55;;;27.50;99.90;;;;;;5034443;28;20187;-89
2022/08/14 07:55:47;;;;;;;7.20;5.80;;;27.30;99.90;;;;;;5052774;28;20182;-87
2022/08/14 07:58:15;;;;;;;5.93;5.30;;;27.10;99.90;;;;;;5043299;28;20221;-88
2022/08/14 08:00:41;;;;;;;11.23;6.35;;;27.20;99.90;;;;;;5016368;28;20229;-89
2022/08/14 08:03:10;;;;;;;9.15;6.05;;;27.40;99.90;;;;;;5015330;28;20218;-90
2022/08/14 08:05:38;;;;;;;7.30;6.32;;;27.70;99.90;;;;;;5035593;28;20667;-91
2022/08/14 08:08:05;;;;;;;7.32;6.63;;;27.90;99.90;;;;;;5036441;28;20178;-91
2022/08/14 08:10:32;;;;;;;8.75;5.68;;;27.80;99.90;;;;;;5035529;28;20280;-91
2022/08/14 08:13:03;;;;;;;8.73;5.60;;;27.40;99.90;;;;;;5019283;28;20585;-93
2022/08/14 08:15:35;;;;;;;6.15;5.55;;;27.30;99.90;;;;;;5032412;28;20245;-89
2022/08/14 08:18:03;;;;;;;9.57;5.85;;;27.70;99.90;;;;;;5032587;28;20230;-91
2022/08/14 08:20:31;;;;;;;7.72;5.70;;;27.40;99.90;;;;;;5037110;28;20642;-90
2022/08/14 08:22:58;;;;;;;6.75;4.90;;;27.80;99.90;;;;;;5016521;28;20175;-91
2022/08/14 08:25:31;;;;;;;6.82;5.85;;;28.10;99.90;;;;;;5028147;28;20214;-91
2022/08/14 08:28:08;;;;;;;13.50;5.57;;;28.00;99.90;;;;;;5052861;28;20288;-89
2022/08/14 08:30:36;;;;;;;10.93;5.78;;;28.10;99.90;;;;;;5032264;28;20219;-90
2022/08/14 08:33:03;;;;;;;5.88;5.28;;;28.20;99.90;;;;;;5022376;28;20235;-91
2022/08/14 08:35:34;;;;;;;6.20;5.13;;;28.20;99.90;;;;;;5023803;28;20277;-89
2022/08/14 08:38:10;;;;;;;5.93;4.57;;;28.00;99.90;;;;;;5028089;28;20163;-90
2022/08/14 08:40:42;;;;;;;6.07;5.35;;;28.60;99.90;;;;;;5024012;28;20233;-90
2022/08/14 08:43:25;;;;;;;5.45;4.57;;;29.00;99.90;;;;;;5018725;28;20283;-92
2022/08/14 08:46:07;;;;;;;5.32;4.78;;;28.50;99.90;;;;;;5034857;28;20636;-90
2022/08/14 08:48:44;;;;;;;5.93;4.90;;;28.30;99.90;;;;;;5051666;28;20617;-89
2022/08/14 08:51:22;;;;;;;5.57;4.60;;;29.10;99.90;;;;;;5051554;28;20211;-91
2022/08/14 08:53:56;;;;;;;6.38;4.82;;;29.10;99.90;;;;;;5035359;28;20217;-89
2022/08/14 08:56:46;;;;;;;5.38;4.80;;;28.60;99.90;;;;;;5052111;28;20238;-89
2022/08/14 08:59:31;;;;;;;5.85;4.90;;;28.50;99.90;;;;;;5052216;28;20167;-89
2022/08/14 09:01:59;;;;;;;6.10;5.43;;;28.80;99.90;;;;;;5033471;28;20198;-89
2022/08/14 09:04:33;;;;;;;5.57;5.07;;;29.30;99.90;;;;;;5055299;28;20316;-91
2022/08/14 09:06:59;;;;;;;6.97;5.18;;;29.10;99.90;;;;;;5044446;28;20752;-89
2022/08/14 09:09:29;;;;;;;6.72;5.43;;;29.20;99.90;;;;;;5031676;28;20206;-88
2022/08/14 09:11:57;;;;;;;8.13;5.90;;;29.30;99.90;;;;;;5063835;28;20586;-90
2022/08/14 09:14:26;;;;;;;5.55;5.00;;;29.20;99.90;;;;;;5036148;28;20586;-89
2022/08/14 09:16:52;;;;;;;5.93;5.00;;;29.30;99.90;;;;;;5039316;28;20700;-89
2022/08/14 09:19:20;;;;;;;5.97;5.38;;;29.00;99.90;;;;;;5055193;28;20301;-90
2022/08/14 09:21:46;;;;;;;8.52;4.97;;;28.80;99.90;;;;;;5055316;28;20304;-90
2022/08/14 09:24:12;;;;;;;6.00;5.30;;;28.60;99.90;;;;;;5038320;28;20225;-90
2022/08/14 09:26:40;;;;;;;5.95;4.53;;;28.60;99.90;;;;;;5038931;28;20223;-90
2022/08/14 09:29:07;;;;;;;5.93;5.35;;;29.10;99.90;;;;;;5039423;28;20638;-91
2022/08/14 09:31:34;;;;;;;4.93;4.50;;;28.80;99.90;;;;;;5038320;28;20221;-90
2022/08/14 09:34:24;;;;;;;6.18;4.82;;;29.00;99.90;;;;;;5038921;28;20214;-92
2022/08/14 09:37:04;;;;;;;6.28;4.80;;;28.70;99.90;;;;;;5055290;28;20209;-91
2022/08/14 09:40:10;;;;;;;4.97;4.47;;;28.90;99.90;;;;;;5055286;28;20224;-91
2022/08/14 09:42:41;;;;;;;6.70;4.50;;;28.70;99.90;;;;;;5042583;28;20840;-92
2022/08/14 09:45:07;;;;;;;4.75;4.25;;;28.60;99.90;;;;;;5052994;28;20264;-89
2022/08/14 09:47:41;;;;;;;5.13;4.63;;;28.70;99.90;;;;;;5041635;28;20182;-89
2022/08/14 09:50:19;;;;;;;5.85;5.03;;;28.90;99.90;;;;;;5055571;28;20184;-90
2022/08/14 09:52:50;;;;;;;5.68;4.80;;;29.20;99.90;;;;;;5058445;28;20254;-90
2022/08/14 09:55:22;;;;;;;7.03;4.47;;;29.10;99.90;;;;;;5058163;28;20208;-90
2022/08/14 09:57:49;;;;;;;5.80;5.30;;;29.10;99.90;;;;;;5058410;28;20616;-91
2022/08/14 10:00:17;;;;;;;5.93;5.00;;;29.30;99.90;;;;;;5075673;28;20233;-92
2022/08/14 10:03:01;;;;;;;6.63;4.50;;;29.30;99.90;;;;;;5063846;28;20582;-90
2022/08/14 10:05:33;;;;;;;8.20;4.85;;;29.60;99.90;;;;;;5057194;28;20240;-91
2022/08/14 10:08:01;;;;;;;5.05;4.55;;;29.70;99.90;;;;;;5076094;28;20273;-91
2022/08/14 10:10:34;;;;;;;4.53;4.15;;;29.50;99.90;;;;;;5050180;28;20218;-93
2022/08/14 10:13:05;;;;;;;4.68;4.25;;;29.50;99.90;;;;;;5038431;28;20214;-88
2022/08/14 10:15:36;;;;;;;5.32;4.82;;;29.40;99.90;;;;;;5037845;28;20268;-89
2022/08/14 10:18:13;;;;;;;5.15;4.65;;;29.80;99.90;;;;;;5038189;28;20752;-89
2022/08/14 10:20:56;;;;;;;5.82;5.22;;;29.50;99.90;;;;;;5055477;28;20690;-88
2022/08/14 10:23:24;;;;;;;5.65;4.32;;;29.60;99.90;;;;;;5037645;28;21076;-88
2022/08/14 10:25:56;;;;;;;4.53;3.92;;;29.40;99.90;;;;;;5040881;28;20244;-90
2022/08/14 10:28:23;;;;;;;5.00;4.50;;;29.50;99.90;;;;;;5047307;28;20210;-89
2022/08/14 10:30:53;;;;;;;5.63;4.47;;;30.00;99.90;;;;;;5037483;28;20272;-89
2022/08/14 10:33:30;;;;;;;6.10;4.07;;;29.70;99.90;;;;;;5037529;28;20558;-89
2022/08/14 10:35:59;;;;;;;5.18;4.13;;;29.40;99.90;;;;;;5037527;28;20205;-89
2022/08/14 10:38:26;;;;;;;6.18;4.25;;;29.30;99.90;;;;;;5024792;28;20275;-88
2022/08/14 10:40:52;;;;;;;4.80;3.60;;;29.70;99.90;;;;;;5021489;28;20273;-88
2022/08/14 10:43:24;;;;;;;9.45;4.53;;;29.90;99.90;;;;;;5015747;28;20313;-89
2022/08/14 10:46:00;;;;;;;4.57;4.18;;;29.70;99.90;;;;;;5057480;28;20209;-88
2022/08/14 10:48:26;;;;;;;10.77;4.10;;;29.70;99.90;;;;;;5020791;28;20308;-87
2022/08/14 10:50:53;;;;;;;4.10;3.70;;;29.50;99.90;;;;;;5033970;28;20216;-87
2022/08/14 10:53:31;;;;;;;4.65;3.97;;;29.80;99.90;;;;;;5056313;28;20244;-88
2022/08/14 10:55:59;;;;;;;5.82;4.07;;;29.80;99.90;;;;;;5073929;28;20169;-89
2022/08/14 10:58:30;;;;;;;6.40;4.43;;;30.10;99.90;;;;;;5056190;28;20205;-88
2022/08/14 11:00:59;;;;;;;4.43;3.85;;;30.40;99.90;;;;;;5039789;28;20255;-87
2022/08/14 11:03:36;;;;;;;3.88;3.58;;;30.10;99.90;;;;;;5049897;28;20229;-87
2022/08/14 11:06:21;;;;;;;4.07;3.65;;;29.80;99.90;;;;;;5025181;28;20644;-88
2022/08/14 11:08:48;;;;;;;4.45;3.92;;;29.80;99.90;;;;;;5054210;28;20698;-88
2022/08/14 11:11:14;;;;;;;4.28;3.88;;;30.00;99.90;;;;;;5036607;28;20178;-87
2022/08/14 11:13:45;;;;;;;4.35;3.38;;;30.20;99.90;;;;;;5019934;28;20681;-88
2022/08/14 11:16:13;;;;;;;5.93;4.30;;;30.20;99.90;;;;;;5023288;28;20679;-89
2022/08/14 11:18:45;;;;;;;7.45;4.28;;;30.00;99.90;;;;;;5049026;28;20206;-88
2022/08/14 11:21:17;;;;;;;7.03;4.22;;;29.40;99.90;;;;;;5035994;28;20245;-90
2022/08/14 11:23:44;;;;;;;4.20;3.80;;;29.50;99.90;;;;;;5036276;28;20216;-88
2022/08/14 11:26:17;;;;;;;4.97;4.28;;;29.50;99.90;;;;;;5019070;28;20650;-87
2022/08/14 11:28:48;;;;;;;4.60;4.00;;;29.70;99.90;;;;;;5041255;28;20203;-87
2022/08/14 11:31:17;;;;;;;5.07;4.57;;;30.10;99.90;;;;;;5040081;28;20295;-87
2022/08/14 11:33:47;;;;;;;4.55;3.80;;;30.60;99.90;;;;;;5021986;28;20209;-88
2022/08/14 11:36:13;;;;;;;5.15;4.20;;;30.10;99.90;;;;;;5046282;28;20213;-87
2022/08/14 11:38:46;;;;;;;5.47;4.18;;;30.00;99.90;;;;;;5054442;28;20712;-87
2022/08/14 11:41:14;;;;;;;4.93;4.47;;;29.50;99.90;;;;;;5036809;28;20185;-88
2022/08/14 11:43:49;;;;;;;5.47;4.32;;;29.40;99.90;;;;;;5033894;28;20296;-88
2022/08/14 11:46:15;;;;;;;4.90;4.40;;;29.20;99.90;;;;;;5026529;28;20309;-87
2022/08/14 11:48:53;;;;;;;5.00;4.50;;;29.20;99.90;;;;;;5018671;28;20260;-87
2022/08/14 11:51:24;;;;;;;6.32;3.92;;;29.30;99.90;;;;;;5043261;28;20236;-87
2022/08/14 11:54:05;;;;;;;4.60;4.13;;;29.10;99.90;;;;;;5059066;28;20271;-87
2022/08/14 11:56:40;;;;;;;6.60;4.20;;;29.30;99.90;;;;;;5041439;28;20182;-86
2022/08/14 11:59:13;;;;;;;7.57;4.22;;;29.60;99.90;;;;;;5046581;28;20181;-87
2022/08/14 12:01:39;;;;;;;5.30;4.78;;;29.30;99.90;;;;;;5035527;28;20268;-86
2022/08/14 12:04:11;;;;;;;5.28;4.78;;;28.90;99.90;;;;;;5024865;28;20612;-87
2022/08/14 12:06:47;;;;;;;5.20;3.75;;;29.20;99.90;;;;;;5085131;28;20213;-87
2022/08/14 12:09:14;;;;;;;4.80;4.32;;;29.60;99.90;;;;;;5089330;28;20575;-86
2022/08/14 12:11:43;;;;;;;4.93;4.40;;;29.80;99.90;;;;;;5034977;28;20692;-88
2022/08/14 12:14:10;;;;;;;6.78;4.55;;;29.60;99.90;;;;;;5033451;28;20187;-87
2022/08/14 12:16:35;;;;;;;5.10;4.60;;;29.50;99.90;;;;;;5042467;28;20305;-88
2022/08/14 12:19:01;;;;;;;5.82;4.70;;;29.50;99.90;;;;;;5058233;28;20312;-87
2022/08/14 12:21:27;;;;;;;4.85;4.35;;;29.00;99.90;;;;;;5061647;28;20221;-88
2022/08/14 12:24:04;;;;;;;4.88;4.38;;;28.40;99.90;;;;;;5034466;28;20221;-87
2022/08/14 12:26:31;;;;;;;4.65;4.15;;;28.80;99.90;;;;;;5063258;28;20182;-87
2022/08/14 12:29:15;;;;;;;4.38;3.97;;;29.10;99.90;;;;;;5055001;28;20173;-87
2022/08/14 12:31:43;;;;;;;5.10;4.38;;;29.20;99.90;;;;;;5054525;28;20223;-87
2022/08/14 12:34:11;;;;;;;5.38;4.88;;;28.80;99.90;;;;;;5037812;28;20215;-86
2022/08/14 12:36:37;;;;;;;4.78;4.15;;;28.80;99.90;;;;;;5054286;28;20232;-87
2022/08/14 12:39:16;;;;;;;4.60;4.20;;;29.10;99.90;;;;;;5036729;28;20233;-87
2022/08/14 12:41:51;;;;;;;6.07;4.65;;;29.10;99.90;;;;;;5044328;28;20668;-87
2022/08/14 12:44:27;;;;;;;4.55;4.03;;;29.10;99.90;;;;;;5054824;28;20195;-87
2022/08/14 12:47:06;;;;;;;5.57;4.68;;;29.10;99.90;;;;;;5071507;28;20233;-87
2022/08/14 12:49:32;;;;;;;4.80;4.30;;;28.90;99.90;;;;;;5071423;28;20209;-86
2022/08/14 12:52:01;;;;;;;4.88;4.38;;;29.10;99.90;;;;;;5049510;28;20847;-87
2022/08/14 12:54:28;;;;;;;4.72;3.78;;;28.90;99.90;;;;;;5043473;28;20216;-87
2022/08/14 12:57:10;;;;;;;5.35;4.60;;;29.20;99.90;;;;;;5090589;28;20616;-86
2022/08/14 12:59:36;;;;;;;4.85;4.20;;;29.20;99.90;;;;;;5078597;28;20279;-87
2022/08/14 13:02:02;;;;;;;4.57;3.83;;;29.00;99.90;;;;;;5062355;28;20176;-87
2022/08/14 13:04:30;;;;;;;5.75;4.32;;;28.60;99.90;;;;;;5058757;28;20696;-87
2022/08/14 13:07:06;;;;;;;5.13;4.13;;;28.50;99.90;;;;;;5038416;28;20210;-86
2022/08/14 13:09:32;;;;;;;5.78;4.22;;;28.30;99.90;;;;;;5036076;28;20209;-87